createdAt,value
2018-09-15T00:01:57.435Z,15.53
2018-09-15T00:04:34.120Z,13.57
2018-09-15T00:07:10.175Z,13.67
2018-09-15T00:09:43.238Z,14.50
2018-09-15T00:12:23.794Z,15.97
2018-09-15T00:15:06.234Z,14.17
2018-09-15T00:20:30.159Z,13.00
2018-09-15T00:23:08.845Z,14.73
2018-09-15T00:25:46.061Z,15.37
2018-09-15T00:28:19.038Z,15.53
2018-09-15T00:30:56.839Z,14.93
2018-09-15T00:48:05.581Z,14.10
2018-09-15T00:50:47.238Z,14.40
2018-09-15T00:53:25.284Z,16.90
2018-09-15T00:56:01.919Z,15.53
2018-09-15T00:58:36.379Z,17.03
2018-09-15T01:01:14.462Z,15.50
2018-09-15T01:03:50.884Z,15.10
2018-09-15T01:06:35.761Z,18.27
2018-09-15T01:09:17.503Z,15.50
2018-09-15T01:11:53.327Z,16.33
2018-09-15T01:14:30.478Z,15.43
2018-09-15T01:17:12.521Z,16.37
2018-09-15T01:19:44.510Z,17.70
2018-09-15T01:22:16.022Z,18.20
2018-09-15T01:24:50.184Z,15.60
2018-09-15T01:27:22.538Z,16.93
2018-09-15T01:29:56.394Z,17.13
2018-09-15T01:32:31.938Z,18.40
2018-09-15T01:35:05.164Z,17.93
2018-09-15T01:37:36.602Z,16.60
2018-09-15T01:40:11.878Z,17.53
2018-09-15T01:42:57.732Z,18.70
2018-09-15T01:52:24.083Z,16.03
2018-09-15T01:54:57.033Z,17.10
2018-09-15T02:00:34.625Z,17.33
2018-09-15T02:06:53.421Z,17.07
2018-09-15T02:17:39.838Z,18.30
2018-09-15T02:31:56.032Z,16.80
2018-09-15T02:37:35.512Z,17.47
2018-09-15T02:43:18.073Z,18.47
2018-09-15T02:46:23.325Z,18.60
2018-09-15T03:58:20.729Z,17.17
2018-09-15T04:01:11.103Z,15.27
2018-09-15T04:03:49.581Z,16.07
2018-09-15T04:09:31.027Z,16.03
2018-09-15T04:18:15.410Z,15.80
2018-09-15T04:33:04.046Z,17.07
2018-09-15T04:42:15.736Z,16.80
2018-09-15T04:45:26.568Z,15.45
2018-09-15T04:48:27.796Z,15.50
2018-09-15T04:51:29.309Z,15.23
2018-09-15T04:56:32.708Z,15.70
2018-09-15T05:09:55.575Z,14.27
2018-09-15T05:15:24.861Z,14.73
2018-09-15T05:18:26.362Z,13.10
2018-09-15T05:21:07.461Z,14.70
2018-09-15T05:23:44.623Z,13.90
2018-09-15T05:26:31.637Z,13.70
2018-09-15T05:29:04.837Z,12.90
2018-09-15T05:31:52.346Z,14.87
2018-09-15T05:34:30.245Z,16.03
2018-09-15T05:37:10.340Z,14.70
2018-09-15T05:39:56.748Z,15.00
2018-09-15T05:46:07.652Z,15.23
2018-09-15T05:48:53.790Z,14.00
2018-09-15T05:51:37.134Z,14.33
2018-09-15T05:57:20.184Z,15.17
2018-09-15T06:00:02.593Z,14.93
2018-09-15T06:02:44.235Z,15.53
2018-09-15T06:05:27.290Z,14.00
2018-09-15T06:08:11.114Z,14.63
2018-09-15T06:19:52.428Z,14.60
2018-09-15T06:43:22.825Z,16.27
2018-09-15T06:46:02.078Z,17.00
2018-09-15T06:48:44.118Z,16.77
2018-09-15T06:54:14.563Z,16.17
2018-09-15T06:56:47.447Z,15.23
2018-09-15T06:59:27.874Z,16.63
2018-09-15T07:02:03.827Z,16.83
2018-09-15T07:04:53.555Z,16.23
2018-09-15T07:07:43.662Z,17.07
2018-09-15T07:10:31.470Z,17.37
2018-09-15T07:13:12.370Z,17.63
2018-09-15T07:19:01.765Z,20.27
2018-09-15T07:22:18.891Z,16.73
2018-09-15T07:27:51.804Z,20.10
2018-09-15T07:34:13.214Z,18.60
2018-09-15T07:45:51.331Z,21.50
2018-09-15T07:48:27.419Z,21.93
2018-09-15T07:51:06.885Z,21.10
2018-09-15T07:53:38.233Z,22.33
2018-09-15T07:56:19.261Z,19.80
2018-09-15T07:58:56.199Z,20.30
2018-09-15T08:01:32.688Z,21.27
2018-09-15T08:04:16.581Z,19.33
2018-09-15T08:06:54.395Z,20.20
2018-09-15T08:12:22.516Z,21.30
2018-09-15T08:15:04.934Z,20.17
2018-09-15T08:17:41.434Z,22.00
2018-09-15T08:26:49.610Z,22.23
2018-09-15T08:29:28.374Z,21.57
2018-09-15T08:32:10.717Z,21.97
2018-09-15T08:34:43.508Z,21.63
2018-09-15T08:37:13.144Z,22.47
2018-09-15T08:39:51.686Z,21.43
2018-09-15T08:42:26.924Z,19.87
2018-09-15T08:46:44.812Z,20.47
2018-09-15T08:52:20.744Z,22.03
2018-09-15T08:55:02.843Z,21.20
2018-09-15T08:57:34.950Z,21.13
2018-09-15T09:00:19.861Z,21.43
2018-09-15T09:03:02.250Z,23.50
2018-09-15T09:05:34.993Z,20.20
2018-09-15T09:08:16.021Z,20.87
2018-09-15T09:10:57.175Z,20.97
2018-09-15T09:13:35.466Z,19.93
2018-09-15T09:16:10.869Z,20.87
2018-09-15T09:18:48.245Z,18.20
2018-09-15T09:21:29.861Z,21.70
2018-09-15T09:31:21.528Z,20.50
2018-09-15T09:34:03.518Z,21.40
2018-09-15T09:36:39.708Z,22.50
2018-09-15T09:39:15.664Z,21.20
2018-09-15T09:41:58.644Z,22.20
2018-09-15T09:44:39.066Z,21.17
2018-09-15T09:47:21.094Z,18.70
2018-09-15T09:53:04.832Z,17.93
2018-09-15T09:55:48.428Z,17.70
2018-09-15T10:01:36.512Z,18.30
2018-09-15T10:04:09.308Z,19.93
2018-09-15T10:06:42.596Z,17.67
2018-09-15T10:09:26.419Z,18.10
2018-09-15T10:12:06.851Z,15.20
2018-09-15T10:14:49.187Z,13.43
2018-09-15T10:17:24.752Z,15.20
2018-09-15T10:20:08.328Z,17.20
2018-09-15T10:22:41.551Z,14.90
2018-09-15T10:28:23.589Z,12.17
2018-09-15T10:34:00.153Z,13.73
2018-09-15T10:36:37.146Z,14.10
2018-09-15T10:39:16.368Z,12.47
2018-09-15T10:41:49.598Z,11.10
2018-09-15T10:44:29.352Z,10.83
2018-09-15T10:47:13.072Z,11.00
2018-09-15T10:49:50.142Z,12.67
2018-09-15T10:52:25.915Z,13.00
2018-09-15T10:55:03.026Z,14.30
2018-09-15T11:09:38.146Z,12.00
2018-09-15T11:12:18.201Z,13.50
2018-09-15T11:14:56.384Z,12.23
2018-09-15T11:17:27.838Z,13.23
2018-09-15T11:20:10.039Z,13.40
2018-09-15T11:22:43.420Z,14.07
2018-09-15T11:25:17.181Z,14.10
2018-09-15T11:30:40.119Z,14.90
2018-09-15T11:33:10.573Z,13.60
2018-09-15T11:35:42.955Z,12.50
2018-09-15T11:38:14.181Z,11.00
2018-09-15T11:40:48.971Z,10.20
2018-09-15T11:43:20.843Z,10.20
2018-09-15T11:45:52.034Z,10.13
2018-09-15T11:48:23.744Z,7.53
2018-09-15T11:50:57.965Z,9.00
2018-09-15T12:00:01.349Z,6.70
2018-09-15T12:02:39.090Z,6.40
2018-09-15T12:05:15.160Z,5.03
2018-09-15T12:07:47.464Z,4.70
2018-09-15T12:10:20.048Z,3.80
2018-09-15T12:12:51.901Z,4.60
2018-09-15T12:15:32.853Z,4.10
2018-09-15T12:18:18.646Z,4.00
2018-09-15T12:21:07.798Z,3.30
2018-09-15T12:23:45.468Z,3.97
2018-09-15T12:26:16.130Z,3.50
2018-09-15T12:28:48.369Z,3.30
2018-09-15T12:31:17.304Z,2.93
2018-09-15T12:33:46.219Z,2.70
2018-09-15T12:36:15.493Z,2.60
2018-09-15T12:38:44.665Z,2.87
2018-09-15T12:41:13.695Z,2.40
2018-09-15T12:43:43.302Z,2.77
2018-09-15T12:46:12.001Z,2.40
2018-09-15T12:48:41.166Z,2.50
2018-09-15T12:51:09.837Z,2.13
2018-09-15T12:53:48.457Z,2.17
2018-09-15T12:56:24.226Z,2.00
2018-09-15T12:58:55.402Z,2.30
2018-09-15T13:01:24.667Z,2.43
2018-09-15T13:03:57.615Z,2.30
2018-09-15T13:06:39.033Z,2.03
2018-09-15T13:09:15.133Z,2.37
2018-09-15T13:11:44.388Z,1.60
2018-09-15T13:14:14.946Z,2.17
2018-09-15T13:16:50.364Z,1.90
2018-09-15T13:19:23.326Z,1.87
2018-09-15T13:21:53.245Z,2.17
2018-09-15T13:24:32.774Z,2.17
2018-09-15T13:27:04.536Z,1.70
2018-09-15T13:29:37.768Z,1.63
2018-09-15T13:32:24.261Z,1.60
2018-09-15T13:34:56.778Z,1.70
2018-09-15T13:37:26.579Z,1.70
2018-09-15T13:39:57.589Z,1.77
2018-09-15T13:42:27.918Z,1.50
2018-09-15T13:44:56.840Z,1.47
2018-09-15T13:47:41.671Z,1.80
2018-09-15T13:50:18.973Z,1.57
2018-09-15T13:53:03.949Z,1.50
2018-09-15T13:55:44.703Z,1.40
2018-09-15T14:04:41.326Z,1.90
2018-09-15T14:07:10.233Z,1.23
2018-09-15T14:09:43.477Z,1.30
2018-09-15T14:12:12.075Z,1.40
2018-09-15T14:14:42.437Z,1.30
2018-09-15T14:17:13.650Z,1.53
2018-09-15T14:19:46.881Z,1.80
2018-09-15T14:22:18.726Z,1.80
2018-09-15T14:24:51.977Z,1.40
2018-09-15T14:27:25.859Z,1.50
2018-09-15T14:30:01.822Z,1.60
2018-09-15T14:32:36.817Z,1.20
2018-09-15T14:35:09.144Z,1.30
2018-09-15T14:37:39.280Z,1.27
2018-09-15T14:40:10.530Z,1.50
2018-09-15T14:42:42.094Z,1.20
2018-09-15T14:45:23.872Z,1.40
2018-09-15T14:47:59.829Z,1.40
2018-09-15T14:50:30.154Z,1.30
2018-09-15T14:52:59.190Z,1.60
2018-09-15T14:55:33.942Z,1.40
2018-09-15T14:58:03.386Z,1.37
2018-09-15T15:00:34.083Z,1.47
2018-09-15T15:03:07.448Z,1.40
2018-09-15T15:05:45.928Z,1.40
2018-09-15T15:08:22.589Z,1.60
2018-09-15T15:10:51.784Z,1.50
2018-09-15T15:13:21.257Z,1.40
2018-09-15T15:15:52.259Z,1.60
2018-09-15T15:18:21.771Z,1.70
2018-09-15T15:20:54.649Z,1.67
2018-09-15T15:23:33.805Z,1.80
2018-09-15T15:26:13.012Z,1.80
2018-09-15T15:28:53.517Z,1.60
2018-09-15T15:31:26.815Z,1.60
2018-09-15T15:33:59.113Z,1.60
2018-09-15T15:36:28.599Z,1.40
2018-09-15T15:39:00.213Z,1.70
2018-09-15T15:44:34.429Z,1.53
2018-09-15T15:47:07.627Z,2.33
2018-09-15T15:49:45.880Z,1.70
2018-09-15T15:52:20.252Z,1.73
2018-09-15T15:54:56.029Z,1.70
2018-09-15T15:57:35.990Z,1.60
2018-09-15T16:00:14.784Z,1.63
2018-09-15T16:02:50.756Z,1.70
2018-09-15T16:05:21.674Z,1.97
2018-09-15T16:08:02.162Z,1.70
2018-09-15T16:14:10.948Z,1.87
2018-09-15T16:16:49.482Z,1.50
2018-09-15T16:19:35.340Z,1.70
2018-09-15T16:22:21.857Z,1.50
2018-09-15T16:27:54.252Z,2.13
2018-09-15T16:30:43.334Z,1.70
2018-09-15T16:33:27.543Z,1.60
2018-09-15T16:36:05.123Z,1.73
2018-09-15T16:38:37.525Z,1.70
2018-09-15T16:41:23.675Z,1.57
2018-09-15T16:43:55.771Z,2.30
2018-09-15T16:46:25.208Z,1.77
2018-09-15T16:48:53.907Z,1.97
2018-09-15T16:51:23.000Z,1.50
2018-09-15T16:53:52.435Z,2.10
2018-09-15T16:56:21.483Z,3.30
2018-09-15T16:58:50.318Z,3.90
2018-09-15T17:01:23.327Z,3.40
2018-09-15T17:03:53.736Z,3.70
2018-09-15T17:06:23.691Z,3.63
2018-09-15T17:08:52.730Z,3.20
2018-09-15T17:11:21.288Z,4.10
2018-09-15T17:13:50.636Z,3.37
2018-09-15T17:16:21.276Z,8.60
2018-09-15T17:18:50.409Z,3.90
2018-09-15T17:21:18.933Z,3.47
2018-09-15T17:23:47.577Z,4.50
2018-09-15T17:26:16.821Z,3.80
2018-09-15T17:28:45.768Z,3.17
2018-09-15T17:31:14.949Z,3.10
2018-09-15T17:33:45.020Z,4.27
2018-09-15T17:36:15.493Z,4.10
2018-09-15T17:38:44.476Z,3.80
2018-09-15T17:41:31.795Z,3.70
2018-09-15T17:44:01.832Z,4.13
2018-09-15T17:46:31.701Z,3.70
2018-09-15T17:49:01.430Z,4.17
2018-09-15T17:51:30.884Z,4.63
2018-09-15T17:54:00.114Z,5.10
2018-09-15T17:56:30.066Z,6.60
2018-09-15T17:58:59.322Z,7.20
2018-09-15T18:01:27.944Z,9.83
2018-09-15T18:03:56.882Z,11.87
2018-09-15T18:06:25.568Z,11.47
2018-09-15T18:08:54.836Z,12.90
2018-09-15T18:11:30.236Z,16.07
2018-09-15T18:14:00.900Z,14.90
2018-09-15T18:16:30.196Z,13.40
2018-09-15T18:18:59.470Z,15.07
2018-09-15T18:21:29.152Z,15.93
2018-09-15T18:23:57.712Z,14.20
2018-09-15T18:26:27.200Z,13.63
2018-09-15T18:28:56.268Z,13.87
2018-09-15T18:31:26.149Z,13.17
2018-09-15T18:33:55.453Z,11.93
2018-09-15T18:36:24.727Z,12.70
2018-09-15T18:38:53.960Z,14.70
2018-09-15T18:41:23.288Z,15.53
2018-09-15T18:43:52.439Z,16.57
2018-09-15T18:46:21.432Z,21.03
2018-09-15T18:48:50.441Z,34.93
2018-09-15T18:51:19.129Z,34.33
2018-09-15T18:53:48.652Z,37.27
2018-09-15T18:56:18.034Z,29.43
2018-09-15T18:58:48.515Z,20.83
2018-09-15T19:01:18.528Z,17.80
2018-09-15T19:03:48.211Z,13.70
2018-09-15T19:06:17.323Z,15.07
2018-09-15T19:08:46.398Z,14.97
2018-09-15T19:11:16.011Z,18.50
2018-09-15T19:13:46.239Z,18.40
2018-09-15T19:16:16.541Z,25.40
2018-09-15T19:18:48.630Z,31.60
2018-09-15T19:21:19.398Z,31.83
2018-09-15T19:24:02.449Z,33.40
2018-09-15T19:26:33.850Z,33.40
2018-09-15T19:29:03.037Z,37.90
2018-09-15T19:31:33.542Z,31.23
2018-09-15T19:34:02.720Z,34.83
2018-09-15T19:36:34.420Z,29.00
2018-09-15T19:39:06.104Z,32.97
2018-09-15T19:41:35.512Z,30.87
2018-09-15T19:44:05.015Z,39.93
2018-09-15T19:46:37.340Z,38.00
2018-09-15T19:49:11.842Z,26.40
2018-09-15T19:51:49.187Z,24.10
2018-09-15T19:54:24.179Z,18.23
2018-09-15T19:57:02.007Z,16.70
2018-09-15T19:59:32.403Z,17.40
2018-09-15T20:02:07.397Z,14.67
2018-09-15T20:07:25.329Z,11.30
2018-09-15T20:10:12.721Z,11.20
2018-09-15T20:12:46.778Z,10.67
2018-09-15T20:18:19.847Z,10.70
2018-09-15T20:20:47.655Z,9.10
2018-09-15T20:24:01.357Z,9.50
2018-09-15T20:26:35.936Z,10.63
2018-09-15T20:29:19.301Z,9.50
2018-09-15T20:31:52.825Z,11.03
2018-09-15T20:34:26.847Z,11.27
2018-09-15T20:36:59.683Z,10.63
2018-09-15T20:39:36.793Z,10.73
2018-09-15T20:42:08.464Z,12.60
2018-09-15T20:44:42.528Z,9.40
2018-09-15T20:47:22.394Z,10.80
2018-09-15T20:49:57.546Z,10.90
2018-09-15T20:52:27.870Z,10.87
2018-09-15T20:54:58.552Z,10.17
2018-09-15T20:57:30.939Z,10.90
2018-09-15T21:00:10.613Z,12.30
2018-09-15T21:02:39.656Z,12.33
2018-09-15T21:05:11.096Z,11.33
2018-09-15T21:07:40.040Z,11.93
2018-09-15T21:10:10.434Z,11.10
2018-09-15T21:12:45.042Z,11.47
2018-09-15T21:15:13.933Z,11.53
2018-09-15T21:17:43.955Z,11.87
2018-09-15T21:20:15.015Z,11.83
2018-09-15T21:22:43.785Z,13.27
2018-09-15T21:25:15.007Z,14.57
2018-09-15T21:27:44.010Z,13.57
2018-09-15T21:30:13.093Z,13.73
2018-09-15T21:32:42.110Z,13.60
2018-09-15T21:35:11.115Z,13.50
2018-09-15T21:37:43.960Z,15.07
2018-09-15T21:40:13.146Z,16.90
2018-09-15T21:42:43.960Z,15.37
2018-09-15T21:45:13.216Z,13.80
2018-09-15T21:47:43.913Z,11.87
2018-09-15T21:50:17.441Z,12.60
2018-09-15T21:52:55.649Z,13.37
2018-09-15T21:55:30.906Z,13.50
2018-09-15T21:58:20.994Z,12.93
2018-09-15T22:00:59.172Z,12.73
2018-09-15T22:03:33.105Z,11.00
2018-09-15T22:08:58.398Z,12.13
2018-09-15T22:11:28.174Z,11.80
2018-09-15T22:14:09.286Z,11.63
2018-09-15T22:16:38.952Z,11.10
2018-09-15T22:19:09.220Z,11.17
2018-09-15T22:21:39.062Z,11.70
2018-09-15T22:24:09.078Z,10.70
2018-09-15T22:26:39.052Z,13.80
2018-09-15T22:29:09.296Z,16.13
2018-09-15T22:31:39.126Z,17.70
2018-09-15T22:34:10.347Z,16.77
2018-09-15T22:36:40.543Z,14.23
2018-09-15T22:39:11.737Z,10.70
2018-09-15T22:41:45.828Z,10.80
2018-09-15T22:44:18.034Z,11.20
2018-09-15T22:46:52.844Z,10.43
2018-09-15T22:49:25.771Z,10.30
2018-09-15T22:51:59.667Z,10.03
2018-09-15T22:54:33.165Z,10.07
2018-09-15T22:57:06.263Z,10.07
2018-09-15T22:59:37.955Z,10.90
2018-09-15T23:02:09.665Z,10.33
2018-09-15T23:04:40.309Z,11.47
2018-09-15T23:07:10.748Z,10.13
2018-09-15T23:09:41.121Z,10.90
2018-09-15T23:12:11.722Z,11.93
2018-09-15T23:14:42.051Z,10.23
2018-09-15T23:17:14.414Z,11.80
2018-09-15T23:19:45.430Z,11.87
2018-09-15T23:22:17.354Z,11.37
2018-09-15T23:24:48.114Z,12.70
2018-09-15T23:27:18.968Z,12.00
2018-09-15T23:29:49.723Z,12.93
2018-09-15T23:32:20.346Z,12.87
2018-09-15T23:34:50.756Z,13.00
2018-09-15T23:37:20.814Z,12.00
2018-09-15T23:39:51.724Z,11.07
2018-09-15T23:42:23.087Z,11.10
2018-09-15T23:44:53.103Z,11.10
2018-09-15T23:47:26.484Z,9.93
2018-09-15T23:49:57.251Z,10.40
2018-09-15T23:52:26.917Z,10.60
2018-09-15T23:54:57.608Z,9.70
2018-09-15T23:57:26.726Z,9.93
2018-09-15T23:59:56.149Z,10.17
